Time;durP1;ratioP1;P1;durP2;ratioP2;P2;SDS_P1;SDS_P2;PMS_P1;PMS_P2;Temp;Humidity;BMP_temperature;BMP_pressure;BME280_temperature;BME280_humidity;BME280_pressure;Samples;Min_cycle;Max_cycle;Signal;HPM_P1;HPM_P2
2022/02/14 00:00:56;;;;;;;1.33;0.80;;;;;;;15.80;42.89;99130.56;4976492;28;20123;-73
2022/02/14 00:03:21;;;;;;;1.70;0.80;;;;;;;15.83;42.67;99138.03;4976439;28;20026;-73
2022/02/14 00:05:47;;;;;;;0.63;0.63;;;;;;;15.74;42.85;99137.63;4976359;28;20453;-73
2022/02/14 00:08:13;;;;;;;0.80;0.70;;;;;;;15.77;42.67;99134.06;4976678;28;20042;-72
2022/02/14 00:10:38;;;;;;;1.95;0.60;;;;;;;15.73;43.01;99138.78;4958965;28;20039;-73
2022/02/14 00:13:05;;;;;;;1.50;0.60;;;;;;;15.83;42.55;99146.31;4976539;28;20035;-72
2022/02/14 00:15:31;;;;;;;4.57;0.88;;;;;;;15.43;43.46;99145.28;4976268;28;20029;-73
2022/02/14 00:17:56;;;;;;;1.13;0.80;;;;;;;15.55;43.15;99146.91;4976008;28;20034;-73
2022/02/14 00:20:22;;;;;;;3.20;1.00;;;;;;;15.53;43.26;99143.75;4974971;28;20030;-72
2022/02/14 00:22:48;;;;;;;2.13;1.27;;;;;;;15.52;43.33;99148.47;4976131;28;20056;-73
2022/02/14 00:25:14;;;;;;;2.22;1.15;;;;;;;15.29;43.82;99145.19;4976117;28;20026;-73
2022/02/14 00:27:40;;;;;;;1.55;1.10;;;;;;;15.20;44.03;99153.00;4975786;28;20031;-73
2022/02/14 00:30:06;;;;;;;3.47;1.42;;;;;;;15.53;43.19;99154.78;4976092;28;20022;-73
2022/02/14 00:32:34;;;;;;;1.95;1.30;;;;;;;15.34;43.83;99149.53;4975968;28;20452;-73
2022/02/14 00:35:00;;;;;;;1.88;1.25;;;;;;;15.40;43.64;99154.28;4975925;28;20023;-72
2022/02/14 00:37:25;;;;;;;6.25;1.50;;;;;;;15.44;43.61;99149.63;4975976;28;20113;-73
2022/02/14 00:39:51;;;;;;;2.42;1.52;;;;;;;15.45;43.74;99147.66;4976149;28;20517;-72
2022/02/14 00:42:17;;;;;;;4.20;1.45;;;;;;;15.43;43.94;99147.25;4975783;28;20358;-73
2022/02/14 00:44:43;;;;;;;3.10;1.42;;;;;;;15.50;43.63;99144.53;4975935;28;20019;-73
2022/02/14 00:47:08;;;;;;;2.72;1.80;;;;;;;15.60;43.38;99148.53;4975653;28;20441;-74
2022/02/14 00:49:34;;;;;;;2.42;1.48;;;;;;;15.49;43.79;99149.25;4975620;28;20047;-72
2022/02/14 00:52:00;;;;;;;2.75;1.40;;;;;;;15.50;43.91;99145.34;4975662;28;20031;-72
2022/02/14 00:54:26;;;;;;;2.78;1.75;;;;;;;15.34;44.48;99141.28;4975503;28;20031;-72
2022/02/14 00:56:51;;;;;;;4.00;2.28;;;;;;;15.51;43.93;99146.91;4975556;28;20085;-72
2022/02/14 00:59:17;;;;;;;2.53;1.60;;;;;;;15.53;43.94;99152.81;4975445;28;20031;-72
2022/02/14 01:01:43;;;;;;;3.70;2.20;;;;;;;15.59;43.87;99144.19;4975375;28;20022;-72
2022/02/14 01:04:09;;;;;;;4.68;1.90;;;;;;;15.52;44.16;99147.69;4975405;28;20085;-72
2022/02/14 01:06:35;;;;;;;3.10;1.73;;;;;;;15.68;43.69;99147.41;4975390;28;20155;-72
2022/02/14 01:09:00;;;;;;;4.18;1.95;;;;;;;15.29;44.68;99150.69;4975561;28;20037;-72
2022/02/14 01:11:26;;;;;;;3.00;1.88;;;;;;;15.42;44.54;99154.72;4975246;28;20478;-72
2022/02/14 01:13:54;;;;;;;2.67;1.77;;;;;;;15.53;44.42;99158.31;4975172;28;20085;-73
2022/02/14 01:16:20;;;;;;;4.78;2.03;;;;;;;15.62;44.03;99157.22;4975016;28;20045;-73
2022/02/14 01:18:46;;;;;;;2.80;2.05;;;;;;;15.49;44.30;99160.28;4975005;28;20034;-73
2022/02/14 01:21:11;;;;;;;3.88;2.50;;;;;;;15.58;44.17;99159.13;4975069;28;20038;-73
2022/02/14 01:23:37;;;;;;;4.53;2.15;;;;;;;15.70;43.88;99164.34;4975266;28;20022;-73
2022/02/14 01:26:03;;;;;;;4.97;2.40;;;;;;;15.54;44.46;99165.41;4975019;28;20055;-72
2022/02/14 01:28:29;;;;;;;4.05;2.10;;;;;;;15.21;45.23;99163.63;4974777;28;20130;-72
2022/02/14 01:30:55;;;;;;;3.85;2.08;;;;;;;15.57;44.32;99171.31;4974508;28;20053;-72
2022/02/14 01:33:21;;;;;;;2.90;1.73;;;;;;;15.23;45.03;99163.22;4974880;28;20162;-72
2022/02/14 01:35:46;;;;;;;5.20;2.20;;;;;;;15.57;44.41;99172.13;4975078;28;20449;-72
2022/02/14 01:38:13;;;;;;;4.22;1.83;;;;;;;15.68;44.01;99177.69;4974946;28;20037;-72
2022/02/14 01:40:38;;;;;;;4.00;1.67;;;;;;;15.71;44.12;99177.72;4974678;28;20544;-73
2022/02/14 01:43:04;;;;;;;3.25;1.45;;;;;;;15.59;44.37;99174.47;4974683;28;20031;-73
2022/02/14 01:45:29;;;;;;;3.85;2.00;;;;;;;15.69;44.10;99179.28;4974625;28;20031;-72
2022/02/14 01:47:55;;;;;;;3.50;1.67;;;;;;;15.68;44.16;99174.94;4974591;28;20023;-73
2022/02/14 01:50:21;;;;;;;4.43;1.77;;;;;;;15.53;44.39;99169.31;4974483;28;20106;-72
2022/02/14 01:52:47;;;;;;;3.15;1.65;;;;;;;15.47;44.50;99179.13;4974623;28;20027;-72
2022/02/14 01:55:14;;;;;;;1.90;1.33;;;;;;;15.39;44.86;99171.97;4974528;28;20393;-73
2022/02/14 01:57:40;;;;;;;3.08;1.63;;;;;;;15.17;45.39;99170.25;4974395;28;20034;-72
2022/02/14 02:00:10;;;;;;;3.83;1.73;;;;;;;15.37;45.01;99173.53;4974392;28;20110;-72
2022/02/14 02:02:35;;;;;;;2.30;1.73;;;;;;;15.02;45.52;99171.31;4974329;28;20470;-73
2022/02/14 02:05:02;;;;;;;3.17;1.92;;;;;;;15.36;44.86;99167.25;4974264;28;20077;-73
2022/02/14 02:07:28;;;;;;;4.80;1.55;;;;;;;15.35;44.85;99171.19;4974229;28;20033;-72
2022/02/14 02:09:54;;;;;;;2.88;2.17;;;;;;;15.61;44.33;99172.13;4974152;28;20030;-72
2022/02/14 02:12:22;;;;;;;5.70;2.10;;;;;;;15.64;44.17;99176.88;4974120;28;20023;-73
2022/02/14 02:14:55;;;;;;;2.83;1.65;;;;;;;15.41;44.66;99183.41;4974153;28;20030;-72
2022/02/14 02:17:28;;;;;;;2.83;2.22;;;;;;;15.30;45.07;99182.53;4974010;28;20023;-72
2022/02/14 02:19:54;;;;;;;2.97;1.85;;;;;;;15.07;45.59;99191.00;4974069;28;20023;-73
2022/02/14 02:22:20;;;;;;;2.92;1.80;;;;;;;15.35;44.75;99189.66;4973985;28;20042;-72
2022/02/14 02:24:50;;;;;;;2.33;1.70;;;;;;;15.27;45.05;99186.84;4973910;28;20019;-72
2022/02/14 02:27:16;;;;;;;4.43;2.00;;;;;;;15.10;45.52;99204.00;4974004;28;20057;-72
2022/02/14 02:29:42;;;;;;;3.05;1.70;;;;;;;15.23;45.09;99207.25;4973699;28;20046;-72
2022/02/14 02:32:09;;;;;;;3.78;2.03;;;;;;;15.37;44.65;99196.34;4973767;28;20027;-73
2022/02/14 02:34:39;;;;;;;5.00;1.70;;;;;;;15.36;44.86;99196.75;4973767;28;20023;-72
2022/02/14 02:37:07;;;;;;;;;;;;;;;14.94;45.68;99201.50;4957678;28;20103;-72
2022/02/14 02:39:34;;;;;;;3.22;1.60;;;;;;;15.30;44.58;99206.53;4973726;28;20373;-72
2022/02/14 02:42:00;;;;;;;3.17;1.75;;;;;;;15.31;44.81;99202.59;4973249;28;20097;-73
2022/02/14 02:44:25;;;;;;;3.90;1.70;;;;;;;15.41;44.77;99208.16;4973749;28;20489;-72
2022/02/14 02:46:51;;;;;;;2.30;1.45;;;;;;;15.20;44.93;99208.81;4973629;28;20030;-72
2022/02/14 02:49:22;;;;;;;2.22;1.45;;;;;;;15.15;45.17;99208.38;4973660;28;20061;-72
2022/02/14 02:51:51;;;;;;;4.00;1.73;;;;;;;15.20;45.02;99213.53;4956270;28;20159;-72
2022/02/14 02:54:18;;;;;;;2.57;1.50;;;;;;;15.35;44.56;99212.47;4973504;28;20033;-73
2022/02/14 02:56:46;;;;;;;2.33;1.35;;;;;;;14.94;45.61;99207.00;4973807;28;20291;-72
2022/02/14 02:59:13;;;;;;;5.40;1.48;;;;;;;15.19;45.04;99209.19;4973358;28;20446;-75
2022/02/14 03:01:39;;;;;;;6.03;1.85;;;;;;;15.23;44.92;99210.00;4973410;28;20057;-72
2022/02/14 03:04:08;;;;;;;2.70;1.25;;;;;;;14.99;45.41;99212.16;4973527;28;20026;-72
2022/02/14 03:06:33;;;;;;;1.95;0.95;;;;;;;14.55;46.47;99212.13;4973432;28;20031;-72
2022/02/14 03:08:59;;;;;;;1.45;1.10;;;;;;;15.01;45.31;99214.53;4973750;28;20035;-72
2022/02/14 03:11:25;;;;;;;3.67;1.38;;;;;;;15.20;44.65;99219.81;4973387;28;20429;-72
2022/02/14 03:13:53;;;;;;;1.92;1.02;;;;;;;14.97;45.32;99233.75;4973412;28;20363;-72
2022/02/14 03:16:19;;;;;;;3.45;1.20;;;;;;;15.03;45.33;99230.66;4973684;28;20035;-72
2022/02/14 03:18:45;;;;;;;2.20;1.00;;;;;;;15.17;44.81;99220.56;4973258;28;20117;-73
2022/02/14 03:21:12;;;;;;;2.35;1.30;;;;;;;15.08;45.23;99222.84;4956044;28;20134;-72
2022/02/14 03:23:38;;;;;;;1.98;0.88;;;;;;;14.86;45.65;99227.34;4973334;28;20110;-73
2022/02/14 03:26:04;;;;;;;3.25;0.90;;;;;;;14.95;45.40;99225.09;4973190;28;20039;-72
2022/02/14 03:28:30;;;;;;;1.80;1.20;;;;;;;14.92;45.57;99222.31;4973116;28;20109;-72
2022/02/14 03:30:58;;;;;;;2.67;1.20;;;;;;;15.04;45.54;99230.28;4973489;28;20035;-72
2022/02/14 03:33:25;;;;;;;2.72;0.93;;;;;;;15.18;45.04;99229.59;4973242;28;20035;-72
2022/02/14 03:35:51;;;;;;;1.23;0.90;;;;;;;15.06;45.18;99225.19;4973301;28;20027;-72
2022/02/14 03:38:17;;;;;;;1.92;0.95;;;;;;;15.07;45.25;99235.03;4973410;28;20029;-72
2022/02/14 03:40:43;;;;;;;2.78;1.13;;;;;;;15.07;45.09;99221.28;4973399;28;20051;-72
2022/02/14 03:43:10;;;;;;;1.63;0.90;;;;;;;15.04;45.41;99233.03;4973196;28;20073;-72
2022/02/14 03:45:38;;;;;;;2.42;1.00;;;;;;;15.22;44.71;99224.94;4956068;28;20406;-72
2022/02/14 03:48:04;;;;;;;1.33;0.80;;;;;;;14.88;45.65;99235.22;4973373;28;20371;-72
2022/02/14 03:50:30;;;;;;;1.80;1.10;;;;;;;15.01;45.56;99239.28;4973105;28;20110;-72
2022/02/14 03:52:56;;;;;;;1.35;0.80;;;;;;;14.98;45.75;99240.06;4973312;28;20162;-72
2022/02/14 03:55:22;;;;;;;2.25;1.23;;;;;;;14.95;45.67;99243.53;4976642;28;20062;-73
2022/02/14 03:57:50;;;;;;;2.17;1.00;;;;;;;14.92;45.65;99233.31;4976605;28;20033;-72
2022/02/14 04:00:18;;;;;;;1.27;0.70;;;;;;;14.99;45.46;99239.66;4976528;28;20106;-72
2022/02/14 04:02:44;;;;;;;3.20;1.10;;;;;;;15.06;45.30;99238.16;4976494;28;20014;-72
2022/02/14 04:05:10;;;;;;;1.10;0.80;;;;;;;15.20;45.02;99246.53;4976524;28;20027;-72
2022/02/14 04:07:36;;;;;;;3.05;1.05;;;;;;;15.08;45.16;99242.09;4976514;28;20073;-72
2022/02/14 04:10:03;;;;;;;1.80;0.95;;;;;;;15.26;44.63;99234.00;4976324;28;20011;-72
2022/02/14 04:12:29;;;;;;;2.15;1.33;;;;;;;14.99;45.56;99244.38;4976385;28;20030;-73
2022/02/14 04:14:54;;;;;;;2.10;1.00;;;;;;;15.03;45.48;99242.44;4976553;28;20023;-72
2022/02/14 04:17:20;;;;;;;2.38;0.90;;;;;;;14.83;45.79;99249.34;4976106;28;20545;-73
2022/02/14 04:19:46;;;;;;;4.13;1.55;;;;;;;14.96;45.29;99251.44;4976238;28;20149;-72
2022/02/14 04:22:11;;;;;;;1.42;1.02;;;;;;;15.30;44.56;99251.34;4976273;28;20023;-72
2022/02/14 04:24:37;;;;;;;2.20;1.30;;;;;;;15.06;45.10;99254.66;4976357;28;20113;-72
2022/02/14 04:27:03;;;;;;;2.03;1.05;;;;;;;15.07;45.04;99261.75;4976383;28;20094;-72
2022/02/14 04:29:28;;;;;;;2.20;1.33;;;;;;;15.13;44.95;99257.47;4975841;28;20049;-72
2022/02/14 04:31:54;;;;;;;2.20;1.38;;;;;;;15.11;45.01;99262.56;4976028;28;20596;-72
2022/02/14 04:34:20;;;;;;;2.05;1.20;;;;;;;14.96;45.36;99275.38;4976035;28;20359;-72
2022/02/14 04:36:47;;;;;;;1.88;1.38;;;;;;;15.16;45.18;99273.22;4976100;28;20034;-73
2022/02/14 04:39:13;;;;;;;4.50;1.77;;;;;;;14.92;45.39;99280.84;4975732;28;20031;-72
2022/02/14 04:41:39;;;;;;;2.05;1.20;;;;;;;15.15;45.08;99277.16;4975876;28;20037;-72
2022/02/14 04:44:05;;;;;;;2.05;1.25;;;;;;;14.78;45.65;99288.16;4975761;28;20050;-73
2022/02/14 04:46:31;;;;;;;1.65;1.13;;;;;;;15.17;44.87;99285.81;4975710;28;20101;-73
2022/02/14 04:48:57;;;;;;;3.05;1.10;;;;;;;15.06;45.19;99282.16;4975721;28;20473;-72
2022/02/14 04:51:25;;;;;;;1.70;1.00;;;;;;;15.04;45.03;99287.25;4958385;28;20062;-72
2022/02/14 04:53:52;;;;;;;2.03;1.20;;;;;;;14.87;45.38;99289.44;4975605;28;20042;-72
2022/02/14 04:56:18;;;;;;;2.40;1.00;;;;;;;15.13;44.71;99296.00;4975586;28;20030;-72
2022/02/14 04:58:44;;;;;;;2.42;1.45;;;;;;;14.91;45.19;99295.00;4975445;28;20027;-72
2022/02/14 05:01:11;;;;;;;2.65;1.17;;;;;;;14.96;45.23;99306.44;4958134;28;20030;-72
2022/02/14 05:03:37;;;;;;;6.30;1.40;;;;;;;14.95;45.23;99309.56;4975687;28;20038;-72
2022/02/14 05:06:03;;;;;;;4.57;1.60;;;;;;;15.10;44.70;99314.03;4974659;28;20389;-72
2022/02/14 05:08:29;;;;;;;3.03;1.48;;;;;;;14.81;45.47;99317.63;4975596;28;20072;-73
2022/02/14 05:10:54;;;;;;;3.88;1.50;;;;;;;14.96;45.04;99319.38;4975371;28;20505;-72
2022/02/14 05:13:20;;;;;;;4.32;1.65;;;;;;;15.15;44.46;99321.94;4975363;28;20026;-73
2022/02/14 05:15:46;;;;;;;3.80;1.35;;;;;;;15.06;44.81;99328.94;4975308;28;20061;-72
2022/02/14 05:18:11;;;;;;;2.85;1.38;;;;;;;15.10;44.82;99329.75;4957794;28;20030;-72
2022/02/14 05:20:37;;;;;;;3.25;1.63;;;;;;;15.12;44.98;99338.44;4975043;28;20027;-72
2022/02/14 05:23:03;;;;;;;3.67;1.20;;;;;;;14.97;45.23;99348.50;4975055;28;20023;-72
2022/02/14 05:25:29;;;;;;;4.80;1.88;;;;;;;15.05;45.04;99346.63;4975295;28;20106;-73
2022/02/14 05:27:54;;;;;;;4.68;1.35;;;;;;;14.65;46.17;99356.34;4974789;28;20051;-72
2022/02/14 05:30:20;;;;;;;5.15;1.38;;;;;;;14.95;45.46;99354.34;4974974;28;20034;-73
2022/02/14 05:32:47;;;;;;;2.63;1.70;;;;;;;14.70;46.13;99356.03;4974879;28;20023;-72
2022/02/14 05:35:13;;;;;;;5.18;1.67;;;;;;;14.69;46.38;99363.47;4974844;28;20458;-72
2022/02/14 05:37:39;;;;;;;4.55;1.75;;;;;;;14.76;46.33;99370.25;4975613;28;20092;-74
2022/02/14 05:40:05;;;;;;;4.78;2.00;;;;;;;14.86;45.97;99370.34;4974185;28;20031;-72
2022/02/14 05:42:31;;;;;;;5.32;1.50;;;;;;;15.04;45.40;99369.75;4974940;28;20026;-72
2022/02/14 05:44:57;;;;;;;4.95;1.23;;;;;;;15.01;45.58;99376.03;4974633;28;20496;-72
2022/02/14 05:47:23;;;;;;;4.05;1.38;;;;;;;15.03;45.42;99382.72;4974823;28;20158;-72
2022/02/14 05:49:49;;;;;;;2.70;1.27;;;;;;;15.04;45.33;99376.09;4974834;28;20029;-73
2022/02/14 05:52:14;;;;;;;3.42;1.00;;;;;;;14.76;46.33;99382.03;4974543;28;20419;-72
2022/02/14 05:54:40;;;;;;;4.80;1.67;;;;;;;14.98;45.57;99386.63;4974794;28;20039;-72
2022/02/14 05:57:05;;;;;;;3.55;1.45;;;;;;;14.99;45.77;99390.94;4974402;28;20657;-73
2022/02/14 05:59:31;;;;;;;1.23;0.80;;;;;;;14.75;46.36;99394.19;4974507;28;20026;-72
2022/02/14 06:01:57;;;;;;;3.45;1.15;;;;;;;14.95;45.90;99395.59;4974416;28;20380;-72
2022/02/14 06:04:23;;;;;;;3.47;1.20;;;;;;;15.14;45.33;99402.13;4956970;28;20027;-73
2022/02/14 06:06:49;;;;;;;2.50;1.48;;;;;;;14.62;46.57;99412.06;4974561;28;20034;-74
2022/02/14 06:09:14;;;;;;;6.22;1.60;;;;;;;15.07;45.65;99408.31;4974275;28;20023;-75
2022/02/14 06:11:40;;;;;;;4.93;1.08;;;;;;;15.27;45.24;99414.47;4974451;28;20485;-73
2022/02/14 06:14:06;;;;;;;4.03;1.15;;;;;;;15.26;45.06;99412.84;4971104;28;20549;-72
2022/02/14 06:16:31;;;;;;;2.33;1.17;;;;;;;15.33;45.03;99420.41;4974162;28;20036;-74
2022/02/14 06:18:58;;;;;;;2.70;1.17;;;;;;;15.49;44.85;99423.72;4973796;28;20474;-72
2022/02/14 06:21:24;;;;;;;4.38;1.00;;;;;;;15.54;44.53;99429.69;4974015;28;20504;-72
2022/02/14 06:23:50;;;;;;;7.10;1.50;;;;;;;15.32;45.03;99419.59;4973912;28;20110;-73
2022/02/14 06:26:16;;;;;;;5.88;1.30;;;;;;;14.96;46.24;99427.47;4973810;28;20094;-72
2022/02/14 06:28:42;;;;;;;2.88;1.15;;;;;;;15.26;45.32;99430.19;4956385;28;20058;-72
2022/02/14 06:31:09;;;;;;;2.75;1.20;;;;;;;15.24;45.06;99432.50;4973850;28;20035;-72
2022/02/14 06:33:35;;;;;;;2.50;1.48;;;;;;;15.28;45.00;99435.31;4973882;28;20390;-72
2022/02/14 06:36:01;;;;;;;3.65;1.38;;;;;;;15.29;45.12;99445.13;4974049;28;20031;-72
2022/02/14 06:38:27;;;;;;;4.22;1.52;;;;;;;15.16;45.39;99455.59;4973763;28;20386;-72
2022/02/14 06:40:53;;;;;;;3.58;1.15;;;;;;;15.13;45.41;99461.84;4973735;28;20034;-72
2022/02/14 06:43:19;;;;;;;5.65;1.00;;;;;;;15.27;44.90;99466.75;4973721;28;20030;-73
2022/02/14 06:45:44;;;;;;;8.45;1.75;;;;;;;15.34;44.64;99472.34;4973674;28;20042;-74
2022/02/14 06:48:10;;;;;;;6.43;1.70;;;;;;;15.27;44.85;99472.25;4973731;28;20045;-72
2022/02/14 06:50:35;;;;;;;3.90;1.10;;;;;;;15.13;45.34;99491.31;4973615;28;20093;-75
2022/02/14 06:53:01;;;;;;;5.32;1.48;;;;;;;15.22;44.70;99480.81;4973477;28;20037;-73
2022/02/14 06:55:27;;;;;;;3.20;1.00;;;;;;;15.42;44.32;99492.47;4973148;28;20041;-72
2022/02/14 06:57:53;;;;;;;3.20;0.90;;;;;;;15.37;44.68;99495.56;4973465;28;20437;-72
2022/02/14 07:00:18;;;;;;;3.10;2.03;;;;;;;15.37;44.65;99501.84;4973548;28;20086;-72
2022/02/14 07:02:44;;;;;;;6.68;1.05;;;;;;;15.45;44.45;99502.72;4973524;28;20503;-72
2022/02/14 07:05:21;;;;;;;0.43;0.43;;;;;;;15.50;44.35;99514.19;4973750;28;20034;-72
2022/02/14 07:07:48;;;;;;;3.35;1.20;;;;;;;15.50;44.28;99516.94;4973504;28;20469;-73
2022/02/14 07:10:14;;;;;;;3.20;0.70;;;;;;;15.49;44.43;99523.63;4973464;28;20381;-72
2022/02/14 07:12:40;;;;;;;2.10;0.70;;;;;;;15.30;44.72;99534.78;4973344;28;20031;-73
2022/02/14 07:15:09;;;;;;;1.75;0.52;;;;;;;15.19;44.96;99542.91;4973622;28;20054;-73
2022/02/14 07:17:35;;;;;;;4.82;1.00;;;;;;;15.39;44.38;99551.81;4973192;28;20038;-72
2022/02/14 07:20:00;;;;;;;3.95;1.00;;;;;;;15.50;44.33;99552.75;4973418;28;20031;-75
2022/02/14 07:22:26;;;;;;;3.30;0.70;;;;;;;15.34;44.74;99565.09;4973330;28;20023;-72
2022/02/14 07:24:52;;;;;;;3.75;0.73;;;;;;;15.31;44.69;99560.34;4973467;28;20035;-72
2022/02/14 07:27:17;;;;;;;6.07;1.95;;;;;;;15.36;44.69;99568.28;4973325;28;20031;-72
2022/02/14 07:29:43;;;;;;;4.47;0.65;;;;;;;15.38;44.55;99565.94;4976239;28;20077;-72
2022/02/14 07:32:09;;;;;;;3.28;1.10;;;;;;;15.39;44.53;99573.03;4977734;28;20026;-82
2022/02/14 07:34:34;;;;;;;2.20;0.82;;;;;;;15.33;44.80;99569.81;4977404;28;20027;-79
2022/02/14 07:37:02;;;;;;;3.40;1.42;;;;;;;15.49;44.30;99578.69;4959748;28;20042;-71
2022/02/14 07:39:33;;;;;;;1.58;0.70;;;;;;;15.42;44.39;99588.81;4957753;28;20601;-71
2022/02/14 07:41:59;;;;;;;3.03;0.90;;;;;;;15.38;44.37;99593.47;4976650;28;20126;-71
2022/02/14 07:44:26;;;;;;;4.40;1.50;;;;;;;15.46;44.23;99600.66;4976814;28;20026;-72
2022/02/14 07:46:52;;;;;;;4.95;1.45;;;;;;;15.40;44.29;99597.41;4976723;28;20026;-73
2022/02/14 07:49:20;;;;;;;3.63;0.85;;;;;;;15.18;44.79;99607.34;4976833;28;20489;-71
2022/02/14 07:51:45;;;;;;;3.83;0.80;;;;;;;15.30;44.55;99609.09;4976936;28;20359;-72
2022/02/14 07:54:11;;;;;;;4.50;0.93;;;;;;;15.24;44.42;99622.38;4976518;28;20031;-71
2022/02/14 07:56:37;;;;;;;4.57;0.90;;;;;;;15.30;44.46;99639.34;4976318;28;20326;-72
2022/02/14 07:59:04;;;;;;;5.72;1.00;;;;;;;15.48;43.85;99637.63;4976413;28;20023;-72
2022/02/14 08:01:29;;;;;;;6.93;1.70;;;;;;;15.35;44.34;99641.00;4976612;28;20063;-73
2022/02/14 08:03:55;;;;;;;4.18;1.27;;;;;;;15.30;44.37;99650.38;4976444;28;20046;-71
2022/02/14 08:06:21;;;;;;;5.38;0.80;;;;;;;15.34;44.08;99653.16;4976552;28;20027;-71
2022/02/14 08:08:46;;;;;;;3.90;0.95;;;;;;;15.32;44.22;99648.03;4976496;28;20355;-72
2022/02/14 08:11:12;;;;;;;3.95;1.30;;;;;;;15.34;44.04;99669.66;4976149;28;20372;-72
2022/02/14 08:13:37;;;;;;;4.00;0.95;;;;;;;15.25;44.27;99672.69;4973096;28;20031;-72
2022/02/14 08:16:03;;;;;;;3.30;0.73;;;;;;;15.27;44.38;99673.94;4974157;28;20082;-71
2022/02/14 08:18:29;;;;;;;4.03;1.20;;;;;;;15.38;43.91;99676.03;4976024;28;20045;-72
2022/02/14 08:20:54;;;;;;;8.93;1.75;;;;;;;15.42;43.70;99683.19;4976080;28;20478;-74
2022/02/14 08:23:20;;;;;;;6.28;1.10;;;;;;;15.47;43.59;99691.13;4976226;28;20022;-72
2022/02/14 08:25:45;;;;;;;5.55;1.42;;;;;;;15.29;43.89;99692.81;4975591;28;20466;-73
2022/02/14 08:28:11;;;;;;;3.78;1.02;;;;;;;15.33;43.74;99690.09;4975752;28;20050;-71
2022/02/14 08:30:36;;;;;;;5.97;1.77;;;;;;;15.38;43.64;99695.31;4975770;28;20029;-71
2022/02/14 08:33:05;;;;;;;3.33;0.90;;;;;;;15.13;44.02;99700.44;4975923;28;20064;-72
2022/02/14 08:35:31;;;;;;;2.67;0.82;;;;;;;15.45;43.13;99701.72;4975833;28;20106;-75
2022/02/14 08:37:57;;;;;;;5.10;0.95;;;;;;;15.46;43.13;99708.81;4975689;28;20050;-71
2022/02/14 08:40:23;;;;;;;6.10;1.35;;;;;;;15.47;43.14;99695.81;4974530;28;20433;-74
2022/02/14 08:42:49;;;;;;;6.80;1.05;;;;;;;15.44;43.25;99710.34;4974162;28;20077;-72
2022/02/14 08:45:14;;;;;;;3.70;0.95;;;;;;;15.54;43.12;99717.97;4975460;28;20038;-72
2022/02/14 08:47:43;;;;;;;4.25;1.65;;;;;;;15.55;42.89;99711.28;4975131;28;20035;-74
2022/02/14 08:50:09;;;;;;;6.60;1.55;;;;;;;15.47;42.98;99718.63;4975255;28;20162;-71
2022/02/14 08:52:35;;;;;;;8.85;1.75;;;;;;;15.40;43.39;99728.75;4975386;28;20077;-72
2022/02/14 08:55:00;;;;;;;3.47;0.80;;;;;;;15.53;42.85;99722.66;4975080;28;20026;-71
2022/02/14 08:57:28;;;;;;;7.75;1.30;;;;;;;15.51;42.68;99737.97;4958517;28;20043;-71
2022/02/14 08:59:54;;;;;;;4.10;1.67;;;;;;;15.39;43.21;99733.47;4975843;28;20045;-72
2022/02/14 09:02:20;;;;;;;3.13;0.85;;;;;;;15.39;43.33;99747.22;4975342;28;20050;-71
2022/02/14 09:04:46;;;;;;;6.75;2.22;;;;;;;15.44;43.25;99757.13;4975443;28;20031;-72
2022/02/14 09:07:11;;;;;;;3.25;1.05;;;;;;;15.34;43.24;99744.81;4975202;28;20031;-72
2022/02/14 09:09:37;;;;;;;6.95;1.50;;;;;;;15.49;42.78;99765.06;4975101;28;20042;-71
2022/02/14 09:12:03;;;;;;;3.85;0.93;;;;;;;15.49;43.08;99767.81;4974833;28;20027;-73
2022/02/14 09:14:29;;;;;;;2.80;1.00;;;;;;;15.55;42.90;99772.66;4975087;28;20023;-71
2022/02/14 09:16:55;;;;;;;3.90;1.00;;;;;;;15.71;42.47;99785.50;4975157;28;20026;-71
2022/02/14 09:19:21;;;;;;;5.90;1.38;;;;;;;15.79;42.47;99782.50;4975015;28;20037;-72
2022/02/14 09:21:47;;;;;;;4.15;1.05;;;;;;;15.76;42.32;99785.97;4957648;28;20027;-74
2022/02/14 09:24:13;;;;;;;4.38;1.75;;;;;;;15.85;42.23;99787.69;4974864;28;20022;-71
2022/02/14 09:26:44;;;;;;;4.55;1.98;;;;;;;15.77;42.19;99797.78;4974834;28;20547;-73
2022/02/14 09:29:12;;;;;;;1.40;0.57;;;;;;;15.82;42.25;99801.03;4974857;28;20105;-72
2022/02/14 09:31:38;;;;;;;4.93;0.90;;;;;;;15.88;41.98;99800.72;4974943;28;20031;-71
2022/02/14 09:34:05;;;;;;;4.35;1.42;;;;;;;15.79;42.33;99806.47;4974696;28;20073;-74
2022/02/14 09:36:31;;;;;;;3.80;0.77;;;;;;;15.87;42.07;99813.72;4974794;28;20035;-72
2022/02/14 09:38:56;;;;;;;5.90;1.50;;;;;;;15.87;41.96;99816.47;4974878;28;20039;-72
2022/02/14 09:41:24;;;;;;;4.93;1.20;;;;;;;15.90;41.92;99821.22;4974698;28;20031;-75
2022/02/14 09:43:50;;;;;;;6.22;1.15;;;;;;;15.55;42.42;99824.97;4974950;28;20031;-72
2022/02/14 09:46:16;;;;;;;2.00;0.77;;;;;;;15.81;41.99;99823.44;4974662;28;20386;-75
2022/02/14 09:48:42;;;;;;;2.75;0.73;;;;;;;15.86;41.96;99825.06;4974567;28;20062;-72
2022/02/14 09:51:09;;;;;;;3.00;1.00;;;;;;;15.94;41.84;99835.03;4974518;28;20161;-72
2022/02/14 09:53:35;;;;;;;4.10;0.88;;;;;;;15.57;42.30;99843.06;4974915;28;20031;-72
2022/02/14 09:56:02;;;;;;;1.23;0.70;;;;;;;15.87;42.01;99849.53;4956631;28;20034;-69
2022/02/14 09:58:28;;;;;;;3.80;0.93;;;;;;;16.06;41.71;99837.59;4974125;28;20035;-69
2022/02/14 10:00:54;;;;;;;5.43;1.35;;;;;;;16.11;41.66;99842.00;4974400;28;20393;-69
2022/02/14 10:03:25;;;;;;;3.53;1.10;;;;;;;15.98;41.72;99866.19;4974254;28;20397;-69
2022/02/14 10:05:54;;;;;;;6.82;1.50;;;;;;;16.15;41.51;99860.16;4974284;28;20117;-70
2022/02/14 10:08:26;;;;;;;5.28;1.10;;;;;;;15.92;42.00;99868.47;4973950;28;20031;-72
2022/02/14 10:10:54;;;;;;;6.00;1.40;;;;;;;15.77;41.84;99881.22;4974133;28;20038;-72
2022/02/14 10:13:32;;;;;;;4.15;0.90;;;;;;;16.17;41.41;99876.31;4974131;28;20110;-70
2022/02/14 10:15:59;;;;;;;7.13;1.38;;;;;;;16.21;41.53;99882.69;4974062;28;20026;-71
2022/02/14 10:18:33;;;;;;;5.65;1.60;;;;;;;16.12;41.68;99882.16;4974210;28;20026;-71
2022/02/14 10:21:22;;;;;;;5.65;1.08;;;;;;;16.07;41.52;99900.59;4974088;28;20491;-70
2022/02/14 10:23:57;;;;;;;2.50;0.77;;;;;;;15.74;42.22;99908.72;4973913;28;20142;-72
2022/02/14 10:26:38;;;;;;;6.88;1.40;;;;;;;16.19;41.12;99901.56;4956248;28;20034;-69
2022/02/14 10:29:27;;;;;;;5.75;1.00;;;;;;;15.92;41.53;99915.31;4973796;28;20082;-73
2022/02/14 10:31:58;;;;;;;2.47;0.80;;;;;;;16.02;41.28;99930.41;4973937;28;20541;-73
2022/02/14 10:34:37;;;;;;;6.60;1.13;;;;;;;15.92;41.27;99936.53;4973695;28;20037;-69
2022/02/14 10:37:04;;;;;;;6.57;1.08;;;;;;;16.13;41.46;99930.59;4973746;28;20042;-71
2022/02/14 10:39:31;;;;;;;4.05;0.85;;;;;;;16.38;40.72;99924.28;4973657;28;20049;-70
2022/02/14 10:42:11;;;;;;;5.22;1.08;;;;;;;16.46;40.42;99944.47;4973665;28;20477;-74
2022/02/14 10:47:52;;;;;;;5.57;1.45;;;;;;;16.63;40.03;99951.44;4973678;28;20138;-71
2022/02/14 10:50:20;;;;;;;2.40;1.00;;;;;;;16.48;40.57;99946.88;4973602;28;20134;-69
2022/02/14 10:52:55;;;;;;;4.70;1.25;;;;;;;16.41;39.74;99966.88;4956160;28;20401;-70
2022/02/14 10:55:30;;;;;;;3.28;1.15;;;;;;;16.47;39.99;99968.13;4973461;28;20022;-69
2022/02/14 10:57:58;;;;;;;7.28;1.05;;;;;;;16.61;39.85;99960.06;4973374;28;20027;-69
2022/02/14 11:00:30;;;;;;;7.47;1.45;;;;;;;16.76;39.55;99971.34;4973405;28;20031;-70
2022/02/14 11:03:01;;;;;;;5.28;1.95;;;;;;;16.72;39.64;99978.78;4972801;28;20019;-70
2022/02/14 11:05:29;;;;;;;7.70;1.65;;;;;;;16.85;39.28;99982.88;4973433;28;20033;-69
2022/02/14 11:07:56;;;;;;;3.03;1.55;;;;;;;16.81;39.48;99987.56;4955995;28;20490;-69
2022/02/14 11:10:22;;;;;;;6.70;2.40;;;;;;;16.88;39.43;99996.75;4973269;28;20027;-73
2022/02/14 11:12:50;;;;;;;8.55;1.58;;;;;;;16.83;39.47;99996.25;4973393;28;20030;-69
2022/02/14 11:15:17;;;;;;;5.30;1.70;;;;;;;17.18;39.17;100018.81;4973442;28;20050;-73
2022/02/14 11:17:46;;;;;;;15.30;2.00;;;;;;;17.47;38.61;100022.72;4971268;28;20046;-70
2022/02/14 11:20:12;;;;;;;6.57;2.27;;;;;;;17.43;38.86;100029.38;4973329;28;20034;-73
2022/02/14 11:22:44;;;;;;;4.47;1.70;;;;;;;17.69;38.54;100037.59;4973578;28;20261;-73
2022/02/14 11:25:09;;;;;;;8.82;1.95;;;;;;;17.10;38.99;100033.69;4973276;28;20027;-69
2022/02/14 11:28:19;;;;;;;3.85;1.00;;;;;;;17.26;38.23;100057.56;4972857;28;20377;-69
2022/02/14 11:31:06;;;;;;;5.82;2.47;;;;;;;17.07;38.45;100055.72;4969880;28;20042;-70
2022/02/14 11:33:32;;;;;;;6.72;1.65;;;;;;;17.26;38.07;100068.63;4973269;28;20051;-74
2022/02/14 11:36:10;;;;;;;5.80;1.20;;;;;;;17.40;37.98;100055.00;4972836;28;20493;-73